Time;durP1;ratioP1;P1;durP2;ratioP2;P2;SDS_P1;SDS_P2;PMS_P1;PMS_P2;Temp;Humidity;BMP_temperature;BMP_pressure;BME280_temperature;BME280_humidity;BME280_pressure;Samples;Min_cycle;Max_cycle;Signal;HPM_P1;HPM_P2
2021/03/02 00:01:34;;;;;;;;;;;;;;;17.71;37.07;101368.56;4432415;32;19964;-46
2021/03/02 00:04:00;;;;;;;;;;;;;;;17.71;37.07;101360.66;4431164;32;19997;-49
2021/03/02 00:06:25;;;;;;;;;;;;;;;17.68;37.14;101369.31;4429149;32;19964;-45
2021/03/02 00:08:51;;;;;;;;;;;;;;;17.70;37.09;101367.62;4428499;32;19958;-47
2021/03/02 00:11:17;;;;;;;;;;;;;;;17.67;37.15;101357.00;4429602;32;19991;-45
2021/03/02 00:13:43;;;;;;;;;;;;;;;17.70;37.04;101359.72;4432758;32;20446;-47
2021/03/02 00:16:09;;;;;;;;;;;;;;;17.72;37.02;101361.53;4428461;32;19962;-47
2021/03/02 00:18:35;;;;;;;;;;;;;;;17.71;36.99;101355.37;4431536;32;20314;-49
2021/03/02 00:21:01;;;;;;;;;;;;;;;17.70;37.02;101362.37;4428087;32;19958;-48
2021/03/02 00:23:27;;;;;;;;;;;;;;;17.69;37.02;101355.31;4432229;32;20032;-51
2021/03/02 00:25:53;;;;;;;;;;;;;;;17.68;37.03;101353.50;4431938;32;19969;-51
2021/03/02 00:28:19;;;;;;;;;;;;;;;17.70;37.03;101361.50;4431063;32;19993;-48
2021/03/02 00:30:45;;;;;;;;;;;;;;;17.70;36.97;101365.00;4424154;32;19997;-48
2021/03/02 00:33:10;;;;;;;;;;;;;;;17.62;37.13;101366.47;4428726;32;19958;-47
2021/03/02 00:35:36;;;;;;;;;;;;;;;17.64;37.12;101363.88;4428463;32;20389;-47
2021/03/02 00:38:02;;;;;;;;;;;;;;;17.64;37.10;101362.16;4432343;32;19954;-49
2021/03/02 00:40:28;;;;;;;;;;;;;;;17.64;37.07;101364.78;4429103;32;20262;-46
2021/03/02 00:42:54;;;;;;;;;;;;;;;17.65;37.04;101361.31;4409865;32;20008;-49
2021/03/02 00:45:20;;;;;;;;;;;;;;;17.66;37.02;101360.47;4403651;32;19966;-49
2021/03/02 00:47:46;;;;;;;;;;;;;;;17.65;37.05;101366.56;4402086;32;19958;-50
2021/03/02 00:50:12;;;;;;;;;;;;;;;17.62;37.09;101365.53;4406147;32;19951;-50
2021/03/02 00:52:38;;;;;;;;;;;;;;;17.64;37.02;101364.78;4401581;32;19958;-49
2021/03/02 00:55:04;;;;;;;;;;;;;;;17.63;37.05;101367.34;4410001;32;20025;-50
2021/03/02 00:57:30;;;;;;;;;;;;;;;17.58;37.16;101369.78;4416537;32;19973;-47
2021/03/02 00:59:55;;;;;;;;;;;;;;;17.63;37.05;101367.34;4408268;32;19960;-46
2021/03/02 01:02:21;;;;;;;;;;;;;;;17.62;37.06;101363.81;4416641;32;19960;-49
2021/03/02 01:04:47;;;;;;;;;;;;;;;17.62;37.04;101365.53;4416753;32;20339;-49
2021/03/02 01:07:13;;;;;;;;;;;;;;;17.63;37.02;101362.97;4415316;32;19958;-49
2021/03/02 01:09:39;;;;;;;;;;;;;;;17.57;37.14;101373.25;4416853;32;20031;-50
2021/03/02 01:12:05;;;;;;;;;;;;;;;17.63;37.05;101369.97;4416480;32;19984;-48
2021/03/02 01:14:31;;;;;;;;;;;;;;;17.59;37.10;101370.69;4415624;32;19968;-50
2021/03/02 01:16:57;;;;;;;;;;;;;;;17.57;37.11;101365.34;4414491;32;20343;-45
2021/03/02 01:19:22;;;;;;;;;;;;;;;17.57;37.12;101368.00;4408081;32;20081;-48
2021/03/02 01:21:48;;;;;;;;;;;;;;;17.59;37.09;101366.31;4402972;32;19998;-49
2021/03/02 01:24:14;;;;;;;;;;;;;;;17.55;37.16;101369.66;4404648;32;20011;-50
2021/03/02 01:26:40;;;;;;;;;;;;;;;17.58;37.07;101364.53;4403277;32;19973;-48
2021/03/02 01:29:06;;;;;;;;;;;;;;;17.60;37.04;101369.84;4400762;32;20374;-50
2021/03/02 01:31:32;;;;;;;;;;;;;;;17.56;37.08;101363.56;4404027;32;20011;-49
2021/03/02 01:33:58;;;;;;;;;;;;;;;17.58;37.08;101369.78;4401736;32;19955;-51
2021/03/02 01:36:24;;;;;;;;;;;;;;;17.56;37.09;101363.56;4415562;32;20009;-46
2021/03/02 01:38:50;;;;;;;;;;;;;;;17.53;37.15;101361.72;4415602;32;19960;-49
2021/03/02 01:41:15;;;;;;;;;;;;;;;17.51;37.18;101371.28;4415971;32;20043;-50
2021/03/02 01:43:41;;;;;;;;;;;;;;;17.50;37.20;101369.47;4415863;32;19954;-50
2021/03/02 01:46:07;;;;;;;;;;;;;;;17.52;37.17;101370.44;4416027;32;19954;-46
2021/03/02 01:48:33;;;;;;;;;;;;;;;17.51;37.20;101367.75;4421371;32;19958;-46
2021/03/02 01:50:59;;;;;;;;;;;;;;;17.51;37.17;101367.75;4412257;32;19990;-48
2021/03/02 01:53:25;;;;;;;;;;;;;;;17.51;37.16;101371.28;4401118;32;19985;-48
2021/03/02 01:55:51;;;;;;;;;;;;;;;17.50;37.14;101361.59;4422437;32;19957;-47
2021/03/02 01:58:17;;;;;;;;;;;;;;;17.50;37.17;101363.34;4425143;32;20360;-49
2021/03/02 02:00:42;;;;;;;;;;;;;;;17.50;37.15;101363.34;4416370;32;19968;-52
2021/03/02 02:03:08;;;;;;;;;;;;;;;17.46;37.21;101359.69;4407877;32;20036;-52
2021/03/02 02:05:34;;;;;;;;;;;;;;;17.51;37.14;101362.50;4416077;32;19984;-47
2021/03/02 02:08:00;;;;;;;;;;;;;;;17.48;37.17;101357.12;4415097;32;19995;-49
2021/03/02 02:10:26;;;;;;;;;;;;;;;17.48;37.16;101355.37;4415159;32;19946;-50
2021/03/02 02:12:52;;;;;;;;;;;;;;;17.50;37.11;101352.81;4414759;32;20003;-47
2021/03/02 02:15:18;;;;;;;;;;;;;;;17.50;37.10;101352.81;4415555;32;19965;-49
2021/03/02 02:17:44;;;;;;;;;;;;;;;17.45;37.20;101354.34;4414336;32;19950;-47
2021/03/02 02:20:10;;;;;;;;;;;;;;;17.48;37.11;101349.22;4414423;32;19986;-49
2021/03/02 02:22:35;;;;;;;;;;;;;;;17.48;37.12;101354.47;4423786;32;19961;-47
2021/03/02 02:25:01;;;;;;;;;;;;;;;17.47;37.13;101344.75;4416314;32;19998;-48
2021/03/02 02:27:27;;;;;;;;;;;;;;;17.46;37.13;101350.84;4415710;32;19966;-48
2021/03/02 02:29:53;;;;;;;;;;;;;;;17.46;37.13;101348.22;4401039;32;20024;-52
2021/03/02 02:32:19;;;;;;;;;;;;;;;17.45;37.16;101351.69;4407918;32;19973;-47
2021/03/02 02:34:45;;;;;;;;;;;;;;;17.46;37.12;101354.41;4400875;32;19989;-50
2021/03/02 02:37:11;;;;;;;;;;;;;;;17.45;37.14;101351.69;4399976;32;19986;-50
2021/03/02 02:39:37;;;;;;;;;;;;;;;17.45;37.14;101341.16;4407517;32;19965;-46
2021/03/02 02:42:03;;;;;;;;;;;;;;;17.44;37.14;101349.91;4415045;32;19958;-49
2021/03/02 02:44:28;;;;;;;;;;;;;;;17.47;37.11;101350.03;4414873;32;19992;-49
2021/03/02 02:46:54;;;;;;;;;;;;;;;17.42;37.15;101348.13;4413018;32;20005;-51
2021/03/02 02:49:20;;;;;;;;;;;;;;;17.45;37.12;101351.69;4414319;32;19958;-48
2021/03/02 02:51:46;;;;;;;;;;;;;;;17.42;37.14;101348.13;4408398;32;19973;-48
2021/03/02 02:54:12;;;;;;;;;;;;;;;17.42;37.14;101348.13;4414556;32;20294;-49
2021/03/02 02:56:38;;;;;;;;;;;;;;;17.40;37.18;101347.16;4413683;32;19973;-52
2021/03/02 02:59:04;;;;;;;;;;;;;;;17.44;37.10;101352.53;4418960;32;19965;-48
2021/03/02 03:01:30;;;;;;;;;;;;;;;17.41;37.12;101346.31;4415288;32;19992;-49
2021/03/02 03:03:56;;;;;;;;;;;;;;;17.45;37.05;101349.06;4403383;32;19958;-48
2021/03/02 03:06:22;;;;;;;;;;;;;;;17.37;37.17;101344.41;4411787;32;19958;-47
2021/03/02 03:08:48;;;;;;;;;;;;;;;17.38;37.17;101347.94;4413742;32;20001;-53
2021/03/02 03:11:13;;;;;;;;;;;;;;;17.40;37.12;101336.62;4414717;32;20283;-48
2021/03/02 03:13:39;;;;;;;;;;;;;;;17.38;37.15;101340.94;4408682;32;20014;-49
2021/03/02 03:16:05;;;;;;;;;;;;;;;17.37;37.17;101339.16;4414054;32;19970;-51
2021/03/02 03:18:31;;;;;;;;;;;;;;;17.39;37.13;101345.37;4414458;32;20042;-50
2021/03/02 03:20:57;;;;;;;;;;;;;;;17.38;37.14;101346.19;4414949;32;20341;-48
2021/03/02 03:23:23;;;;;;;;;;;;;;;17.36;37.17;101337.34;4418435;32;20051;-49
2021/03/02 03:25:49;;;;;;;;;;;;;;;17.36;37.17;101337.34;4413480;32;20012;-50
2021/03/02 03:28:15;;;;;;;;;;;;;;;17.40;37.07;101334.00;4413873;32;19980;-48
2021/03/02 03:30:40;;;;;;;;;;;;;;;17.37;37.14;101343.50;4415268;32;19981;-48
2021/03/02 03:33:06;;;;;;;;;;;;;;;17.33;37.20;101337.19;4409094;32;19962;-52
2021/03/02 03:35:32;;;;;;;;;;;;;;;17.35;37.14;101338.19;4417707;32;20338;-50
2021/03/02 03:37:58;;;;;;;;;;;;;;;17.36;37.13;101337.34;4425068;32;19989;-48
2021/03/02 03:40:24;;;;;;;;;;;;;;;17.34;37.13;101339.00;4414070;32;19965;-51
2021/03/02 03:42:50;;;;;;;;;;;;;;;17.33;37.18;101342.47;4414541;32;19968;-49
2021/03/02 03:45:16;;;;;;;;;;;;;;;17.35;37.13;101339.91;4411545;32;19973;-47
2021/03/02 03:47:42;;;;;;;;;;;;;;;17.35;37.12;101343.47;4407762;32;19991;-48
2021/03/02 03:50:07;;;;;;;;;;;;;;;17.33;37.17;101342.47;4414091;32;20335;-47
2021/03/02 03:52:33;;;;;;;;;;;;;;;17.34;37.15;101343.38;4414444;32;20017;-50
2021/03/02 03:54:59;;;;;;;;;;;;;;;17.32;37.16;101348.56;4413963;32;19946;-50
2021/03/02 03:57:25;;;;;;;;;;;;;;;17.34;37.09;101349.53;4407134;32;19973;-50
2021/03/02 03:59:51;;;;;;;;;;;;;;;17.31;37.14;101344.16;4412020;32;19957;-50
2021/03/02 04:02:17;;;;;;;;;;;;;;;17.33;37.11;101347.75;4414432;32;20382;-50
2021/03/02 04:04:43;;;;;;;;;;;;;;;17.34;37.08;101357.44;4402185;32;19955;-48
2021/03/02 04:07:09;;;;;;;;;;;;;;;17.32;37.13;101351.22;4398211;32;19997;-47
2021/03/02 04:09:35;;;;;;;;;;;;;;;17.34;37.07;101349.53;4399489;32;19958;-51
2021/03/02 04:12:00;;;;;;;;;;;;;;;17.33;37.09;101350.38;4399803;32;19950;-47
2021/03/02 04:14:26;;;;;;;;;;;;;;;17.33;37.08;101360.91;4398649;32;20358;-49
2021/03/02 04:16:52;;;;;;;;;;;;;;;17.30;37.16;101362.53;4398186;32;19959;-49
2021/03/02 04:19:18;;;;;;;;;;;;;;;17.27;37.18;101358.03;4400986;32;20001;-52
2021/03/02 04:21:44;;;;;;;;;;;;;;;17.30;37.11;101358.16;4400253;32;19947;-47
2021/03/02 04:24:10;;;;;;;;;;;;;;;17.31;37.11;101369.59;4401037;32;19955;-49
2021/03/02 04:26:36;;;;;;;;;;;;;;;17.30;37.09;101358.16;4400668;32;19977;-50
2021/03/02 04:29:02;;;;;;;;;;;;;;;17.32;37.07;101364.38;4403811;32;20307;-47
2021/03/02 04:31:27;;;;;;;;;;;;;;;17.30;37.09;101359.91;4431725;32;20000;-48
2021/03/02 04:33:53;;;;;;;;;;;;;;;17.28;37.11;101370.34;4428013;32;20003;-50
2021/03/02 04:36:19;;;;;;;;;;;;;;;17.29;37.08;101366.88;4426984;32;20012;-47
2021/03/02 04:38:45;;;;;;;;;;;;;;;17.26;37.12;101366.78;4428891;32;19977;-47
2021/03/02 04:41:12;;;;;;;;;;;;;;;17.26;37.13;101372.91;4432263;32;19980;-49
2021/03/02 04:43:38;;;;;;;;;;;;;;;17.27;37.09;101373.81;4429555;32;19950;-53
2021/03/02 04:46:04;;;;;;;;;;;;;;;17.27;37.11;101373.81;4431226;32;19953;-50
2021/03/02 04:48:30;;;;;;;;;;;;;;;17.25;37.13;101375.50;4427721;32;19953;-47
2021/03/02 04:50:56;;;;;;;;;;;;;;;17.25;37.10;101373.75;4428494;32;19995;-51
2021/03/02 04:53:21;;;;;;;;;;;;;;;17.27;37.07;101372.06;4431304;32;19972;-50
2021/03/02 04:55:47;;;;;;;;;;;;;;;17.27;37.08;101373.81;4428757;32;20567;-50
2021/03/02 04:58:13;;;;;;;;;;;;;;;17.24;37.10;101374.59;4425708;32;20452;-51
2021/03/02 05:00:39;;;;;;;;;;;;;;;17.23;37.12;101375.44;4429406;32;20010;-48
2021/03/02 05:03:05;;;;;;;;;;;;;;;17.20;37.17;101380.56;4431536;32;19953;-49
2021/03/02 05:05:31;;;;;;;;;;;;;;;17.22;37.18;101385.87;4430926;32;19958;-49
2021/03/02 05:07:57;;;;;;;;;;;;;;;17.24;37.15;101384.25;4431330;32;19962;-50
2021/03/02 05:10:23;;;;;;;;;;;;;;;17.20;37.19;101382.28;4431260;32;20078;-49
2021/03/02 05:12:49;;;;;;;;;;;;;;;17.21;37.15;101385.00;4430674;32;20000;-48
2021/03/02 05:15:14;;;;;;;;;;;;;;;17.19;37.21;101386.69;4429190;32;19954;-50
2021/03/02 05:17:40;;;;;;;;;;;;;;;17.18;37.22;101382.25;4430763;32;19970;-51
2021/03/02 05:20:06;;;;;;;;;;;;;;;17.18;37.21;101379.63;4426744;32;20908;-47
2021/03/02 05:22:32;;;;;;;;;;;;;;;17.18;37.22;101379.63;4429977;32;19972;-53
2021/03/02 05:24:58;;;;;;;;;;;;;;;17.21;37.15;101384.09;4429137;32;19991;-49
2021/03/02 05:27:24;;;;;;;;;;;;;;;17.22;37.16;101385.87;4429505;32;19969;-46
2021/03/02 05:29:50;;;;;;;;;;;;;;;17.20;37.16;101383.22;4428438;32;19958;-50
2021/03/02 05:32:16;;;;;;;;;;;;;;;17.19;37.18;101380.50;4430751;32;19965;-47
2021/03/02 05:34:41;;;;;;;;;;;;;;;17.23;37.14;101387.72;4430665;32;19954;-49
2021/03/02 05:37:07;;;;;;;;;;;;;;;17.20;37.15;101390.19;4429428;32;20279;-50
2021/03/02 05:39:33;;;;;;;;;;;;;;;17.19;37.16;101389.31;4429731;32;19958;-51
2021/03/02 05:41:59;;;;;;;;;;;;;;;17.20;37.15;101393.75;4428087;32;20036;-47
2021/03/02 05:44:25;;;;;;;;;;;;;;;17.22;37.13;101396.41;4429113;32;19976;-47
2021/03/02 05:46:51;;;;;;;;;;;;;;;17.21;37.17;101397.25;4428221;32;20382;-49
2021/03/02 05:49:17;;;;;;;;;;;;;;;17.20;37.12;101388.47;4427564;32;19964;-51
2021/03/02 05:51:43;;;;;;;;;;;;;;;17.19;37.16;101391.03;4422098;32;20304;-47
2021/03/02 05:54:09;;;;;;;;;;;;;;;17.20;37.14;101392.81;4430664;32;20007;-49
2021/03/02 05:56:35;;;;;;;;;;;;;;;17.19;37.15;101391.03;4425107;32;20021;-47
2021/03/02 05:59:00;;;;;;;;;;;;;;;17.19;37.16;101393.66;4426319;32;19964;-47
2021/03/02 06:01:26;;;;;;;;;;;;;;;17.18;37.17;101399.75;4427468;32;19957;-49
2021/03/02 06:03:52;;;;;;;;;;;;;;;17.17;37.19;101397.97;4431064;32;20400;-48
2021/03/02 06:06:18;;;;;;;;;;;;;;;17.19;37.15;101404.19;4430408;32;19950;-47
2021/03/02 06:08:44;;;;;;;;;;;;;;;17.17;37.14;101393.63;4430042;32;19942;-52
2021/03/02 06:11:10;;;;;;;;;;;;;;;17.17;37.14;101411.12;4429053;32;20305;-50
2021/03/02 06:13:36;;;;;;;;;;;;;;;17.17;37.13;101404.16;4411679;32;19969;-49
2021/03/02 06:16:02;;;;;;;;;;;;;;;17.21;37.11;101410.41;4426291;32;20010;-48
2021/03/02 06:18:28;;;;;;;;;;;;;;;17.17;37.16;101413.75;4429990;32;20020;-51
2021/03/02 06:20:54;;;;;;;;;;;;;;;17.14;37.19;101410.16;4426368;32;19996;-53
2021/03/02 06:23:20;;;;;;;;;;;;;;;17.17;37.15;101417.31;4430020;32;19953;-50
2021/03/02 06:25:46;;;;;;;;;;;;;;;17.19;37.10;101406.81;4427353;32;20005;-48
2021/03/02 06:28:12;;;;;;;;;;;;;;;17.16;37.14;101415.47;4428668;32;19957;-50
2021/03/02 06:30:37;;;;;;;;;;;;;;;17.16;37.15;101411.97;4427029;32;19965;-49
2021/03/02 06:33:03;;;;;;;;;;;;;;;17.19;37.12;101417.34;4424553;32;20339;-51
2021/03/02 06:35:29;;;;;;;;;;;;;;;17.18;37.11;101423.44;4423978;32;19980;-50
2021/03/02 06:37:55;;;;;;;;;;;;;;;17.18;37.14;101420.81;4429177;32;19954;-49
2021/03/02 06:40:21;;;;;;;;;;;;;;;17.14;37.16;101425.03;4430246;32;19985;-50
2021/03/02 06:42:47;;;;;;;;;;;;;;;17.17;37.13;101427.84;4424684;32;19958;-48
2021/03/02 06:45:14;;;;;;;;;;;;;;;17.17;37.12;101427.84;4424349;32;19947;-50
2021/03/02 06:47:40;;;;;;;;;;;;;;;17.20;37.08;101429.69;4424956;32;20483;-50
2021/03/02 06:50:06;;;;;;;;;;;;;;;17.18;37.12;101426.09;4424047;32;19961;-52
2021/03/02 06:52:32;;;;;;;;;;;;;;;17.19;37.09;101430.50;4421733;32;19988;-50
2021/03/02 06:54:58;;;;;;;;;;;;;;;17.22;37.05;101428.91;4423723;32;19994;-51
2021/03/02 06:57:24;;;;;;;;;;;;;;;17.25;36.98;101430.78;4427039;32;20001;-51
2021/03/02 06:59:50;;;;;;;;;;;;;;;17.22;37.07;101428.91;4423848;32;19992;-50
2021/03/02 07:02:16;;;;;;;;;;;;;;;17.23;37.08;101432.47;4424256;32;19949;-49
2021/03/02 07:04:42;;;;;;;;;;;;;;;17.23;37.05;101430.72;4422228;32;19978;-50
2021/03/02 07:07:14;;;;;;;;;;;;;;;17.23;37.07;101435.09;4423003;32;19982;-50
2021/03/02 07:09:41;;;;;;;;;;;;;;;17.21;37.10;101437.66;4425649;32;19958;-48
2021/03/02 07:12:07;;;;;;;;;;;;;;;17.21;37.10;101439.38;4422553;32;19958;-50
2021/03/02 07:14:33;;;;;;;;;;;;;;;17.21;37.10;101439.38;4423604;32;19990;-50
2021/03/02 07:16:59;;;;;;;;;;;;;;;17.21;37.09;101440.28;4423643;32;20009;-46
2021/03/02 07:19:25;;;;;;;;;;;;;;;17.23;37.08;101433.34;4423008;32;19958;-47
2021/03/02 07:21:54;;;;;;;;;;;;;;;17.25;37.06;101446.59;4420815;32;20057;-52
2021/03/02 07:24:19;;;;;;;;;;;;;;;17.20;37.16;101445.47;4421869;32;20004;-51
2021/03/02 07:26:45;;;;;;;;;;;;;;;17.24;37.09;101452.69;4423549;32;19982;-50
2021/03/02 07:29:11;;;;;;;;;;;;;;;17.24;37.09;101450.94;4422212;32;20000;-47
2021/03/02 07:31:37;;;;;;;;;;;;;;;17.26;37.06;101454.53;4423740;32;20062;-49
2021/03/02 07:34:03;;;;;;;;;;;;;;;17.27;37.08;101452.81;4423739;32;19950;-48
2021/03/02 07:36:29;;;;;;;;;;;;;;;17.27;37.06;101458.06;4424757;32;19953;-47
2021/03/02 07:38:55;;;;;;;;;;;;;;;17.26;37.08;101462.44;4423258;32;20326;-47
2021/03/02 07:41:21;;;;;;;;;;;;;;;17.26;37.09;101459.78;4423512;32;19950;-49
2021/03/02 07:43:47;;;;;;;;;;;;;;;17.26;37.11;101462.44;4423998;32;19946;-53
2021/03/02 07:46:13;;;;;;;;;;;;;;;17.25;37.14;101465.00;4420920;32;19988;-51
2021/03/02 07:48:38;;;;;;;;;;;;;;;17.23;37.16;101456.16;4420434;32;20007;-51
2021/03/02 07:51:04;;;;;;;;;;;;;;;17.24;37.15;101458.84;4422005;32;20386;-51
2021/03/02 07:53:30;;;;;;;;;;;;;;;17.27;37.14;101471.25;4423027;32;19956;-46
2021/03/02 07:55:56;;;;;;;;;;;;;;;17.25;37.18;101470.28;4422963;32;19974;-49
2021/03/02 07:58:22;;;;;;;;;;;;;;;17.26;37.15;101472.06;4424612;32;19964;-48
2021/03/02 08:00:48;;;;;;;;;;;;;;;17.25;37.16;101475.53;4421859;32;19977;-47
2021/03/02 08:03:14;;;;;;;;;;;;;;;17.27;37.08;101468.59;4425385;32;20036;-47
2021/03/02 08:05:40;;;;;;;;;;;;;;;17.27;37.13;101479.12;4429432;32;19957;-51
2021/03/02 08:08:06;;;;;;;;;;;;;;;17.23;37.29;101472.84;4421608;32;20272;-52
2021/03/02 08:10:32;;;;;;;;;;;;;;;17.18;37.39;101479.66;4425046;32;19966;-49
2021/03/02 08:12:58;;;;;;;;;;;;;;;17.17;37.42;101477.84;4426980;32;19958;-49
2021/03/02 08:15:24;;;;;;;;;;;;;;;17.21;37.31;101478.84;4421739;32;19953;-49
2021/03/02 08:17:50;;;;;;;;;;;;;;;17.24;37.29;101473.75;4419790;32;20703;-50
2021/03/02 08:20:16;;;;;;;;;;;;;;;17.28;37.22;101480.94;4420563;32;20003;-49
2021/03/02 08:22:41;;;;;;;;;;;;;;;17.28;37.18;101475.66;4422496;32;20001;-50
2021/03/02 08:25:10;;;;;;;;;;;;;;;17.30;37.18;101473.13;4415431;32;20018;-49
2021/03/02 08:27:36;;;;;;;;;;;;;;;17.31;37.21;101474.91;4420219;32;20349;-49
2021/03/02 08:30:02;;;;;;;;;;;;;;;17.28;37.25;101486.19;4414360;32;19965;-49
2021/03/02 08:32:29;;;;;;;;;;;;;;;17.30;37.24;101489.78;4414792;32;20005;-51
2021/03/02 08:34:55;;;;;;;;;;;;;;;17.30;37.25;101487.16;4426671;32;19995;-50
2021/03/02 08:37:21;;;;;;;;;;;;;;;17.27;37.28;101485.28;4426087;32;19954;-53
2021/03/02 08:39:46;;;;;;;;;;;;;;;17.30;37.26;101495.06;4426782;32;19955;-47
2021/03/02 08:42:12;;;;;;;;;;;;;;;17.31;37.25;101490.69;4422844;32;19954;-49
2021/03/02 08:44:38;;;;;;;;;;;;;;;17.33;37.22;101487.28;4410767;32;20019;-47
2021/03/02 08:47:04;;;;;;;;;;;;;;;17.32;37.22;101488.13;4405485;32;19986;-49
2021/03/02 08:49:30;;;;;;;;;;;;;;;17.31;37.27;101486.31;4403684;32;19946;-50
2021/03/02 08:51:56;;;;;;;;;;;;;;;17.33;37.25;101494.28;4398735;32;19977;-48
2021/03/02 08:54:22;;;;;;;;;;;;;;;17.35;37.24;101493.53;4405591;32;19954;-52
2021/03/02 08:56:48;;;;;;;;;;;;;;;17.34;37.28;101486.44;4405813;32;19954;-52
2021/03/02 08:59:16;;;;;;;;;;;;;;;17.36;37.24;101487.44;4402605;32;20395;-51
2021/03/02 09:01:42;;;;;;;;;;;;;;;17.35;37.27;101493.53;4400138;32;20606;-49
2021/03/02 09:04:08;;;;;;;;;;;;;;;17.35;37.29;101487.34;4406259;32;19954;-47
2021/03/02 09:06:34;;;;;;;;;;;;;;;17.35;37.32;101483.00;4412629;32;20363;-52
2021/03/02 09:09:01;;;;;;;;;;;;;;;17.36;37.26;101483.88;4415754;32;19954;-52
2021/03/02 09:11:27;;;;;;;;;;;;;;;17.36;37.28;101490.06;4416391;32;19972;-51
2021/03/02 09:13:53;;;;;;;;;;;;;;;17.36;37.29;101489.16;4416143;32;19964;-50
2021/03/02 09:16:19;;;;;;;;;;;;;;;17.37;37.29;101497.13;4428062;32;19997;-47
2021/03/02 09:18:45;;;;;;;;;;;;;;;17.38;37.28;101491.03;4418709;32;20007;-51
2021/03/02 09:21:11;;;;;;;;;;;;;;;17.37;37.32;101491.88;4413367;32;19954;-48
2021/03/02 09:23:36;;;;;;;;;;;;;;;17.37;37.39;101498.84;4415416;32;19954;-47
2021/03/02 09:26:02;;;;;;;;;;;;;;;17.39;37.33;101500.72;4415861;32;19988;-50
2021/03/02 09:28:28;;;;;;;;;;;;;;;17.41;37.27;101500.81;4411206;32;20508;-50
2021/03/02 09:30:54;;;;;;;;;;;;;;;17.40;37.34;101497.25;4412079;32;20368;-49
2021/03/02 09:33:20;;;;;;;;;;;;;;;17.41;37.37;101493.78;4414919;32;19990;-52
2021/03/02 09:35:46;;;;;;;;;;;;;;;17.34;37.39;101496.97;4414238;32;19957;-52
2021/03/02 09:38:12;;;;;;;;;;;;;;;17.08;38.05;101501.13;4403735;32;19973;-48
2021/03/02 09:40:38;;;;;;;;;;;;;;;17.27;37.74;101508.09;4400425;32;19954;-50
2021/03/02 09:43:04;;;;;;;;;;;;;;;17.37;37.50;101502.41;4414168;32;20037;-49
2021/03/02 09:45:30;;;;;;;;;;;;;;;17.41;37.40;101498.16;4401180;32;19958;-51
2021/03/02 09:47:56;;;;;;;;;;;;;;;17.40;37.35;101502.53;4407047;32;20004;-49
2021/03/02 09:50:22;;;;;;;;;;;;;;;17.44;37.33;101502.62;4402298;32;19982;-52
2021/03/02 09:52:48;;;;;;;;;;;;;;;17.46;37.27;101506.22;4407356;32;19976;-48
2021/03/02 09:55:14;;;;;;;;;;;;;;;17.44;37.28;101500.91;4408499;32;19958;-51
2021/03/02 09:57:40;;;;;;;;;;;;;;;17.47;37.25;101502.75;4398445;32;20049;-49
2021/03/02 10:00:06;;;;;;;;;;;;;;;17.48;37.24;101504.59;4403704;32;19966;-49
2021/03/02 10:02:32;;;;;;;;;;;;;;;17.46;37.34;101517.69;4423881;32;19972;-50
2021/03/02 10:04:58;;;;;;;;;;;;;;;17.47;37.26;101502.75;4411589;32;19995;-49
2021/03/02 10:07:24;;;;;;;;;;;;;;;17.48;37.23;101509.84;4406389;32;19970;-49
2021/03/02 10:09:50;;;;;;;;;;;;;;;17.52;37.19;101501.25;4409777;32;19999;-50
2021/03/02 10:12:16;;;;;;;;;;;;;;;17.52;37.17;101506.50;4413180;32;19957;-51
2021/03/02 10:14:42;;;;;;;;;;;;;;;17.50;37.22;101513.44;4416625;32;19954;-49
2021/03/02 10:17:08;;;;;;;;;;;;;;;17.50;37.27;101501.16;4428450;32;19958;-52
2021/03/02 10:19:34;;;;;;;;;;;;;;;17.49;37.37;101502.00;4422693;32;20008;-50
2021/03/02 10:22:00;;;;;;;;;;;;;;;17.53;37.29;101505.66;4423616;32;20374;-49
2021/03/02 10:24:26;;;;;;;;;;;;;;;17.54;37.27;101505.75;4423518;32;19965;-54
2021/03/02 10:26:52;;;;;;;;;;;;;;;17.54;37.32;101508.37;4421699;32;19954;-51
2021/03/02 10:29:18;;;;;;;;;;;;;;;17.57;37.23;101504.94;4429592;32;19995;-48
2021/03/02 10:31:44;;;;;;;;;;;;;;;17.56;37.33;101513.69;4429401;32;19969;-51
2021/03/02 10:34:09;;;;;;;;;;;;;;;17.57;37.31;101512.84;4428795;32;19989;-49
2021/03/02 10:36:35;;;;;;;;;;;;;;;17.56;37.38;101514.59;4427230;32;20309;-48
2021/03/02 10:39:01;;;;;;;;;;;;;;;17.56;37.42;101514.59;4429327;32;19998;-47
2021/03/02 10:41:27;;;;;;;;;;;;;;;17.56;37.46;101513.69;4425212;32;20432;-52
2021/03/02 10:43:53;;;;;;;;;;;;;;;17.49;37.58;101516.91;4426861;32;19985;-52
2021/03/02 10:46:19;;;;;;;;;;;;;;;17.37;38.03;101515.56;4416364;32;20016;-52
2021/03/02 10:48:45;;;;;;;;;;;;;;;17.44;37.78;101510.53;4409331;32;20005;-55
2021/03/02 10:51:11;;;;;;;;;;;;;;;17.51;37.82;101520.50;4412103;32;19969;-51
2021/03/02 10:53:37;;;;;;;;;;;;;;;17.50;37.77;101529.25;4402742;32;19942;-53
2021/03/02 10:56:03;;;;;;;;;;;;;;;17.53;37.73;101529.38;4414063;32;20692;-53
2021/03/02 10:58:30;;;;;;;;;;;;;;;17.57;37.68;101531.28;4414270;32;20000;-53
2021/03/02 11:00:56;;;;;;;;;;;;;;;17.58;37.66;101527.81;4411629;32;19954;-49
2021/03/02 11:03:22;;;;;;;;;;;;;;;17.62;37.55;101527.12;4403413;32;20015;-54
2021/03/02 11:05:48;;;;;;;;;;;;;;;17.64;37.46;101527.19;4412184;32;20002;-54
2021/03/02 11:08:15;;;;;;;;;;;;;;;17.62;37.67;101519.25;4412718;32;19966;-52
2021/03/02 11:10:41;;;;;;;;;;;;;;;17.64;37.59;101525.47;4414670;32;19972;-51
2021/03/02 11:13:07;;;;;;;;;;;;;;;17.65;37.52;101522.00;4413082;32;20009;-53
2021/03/02 11:15:33;;;;;;;;;;;;;;;17.65;37.60;101516.72;4421048;32;19997;-53
2021/03/02 11:17:59;;;;;;;;;;;;;;;17.65;37.54;101514.09;4412596;32;19957;-55
2021/03/02 11:20:25;;;;;;;;;;;;;;;17.68;37.57;101514.22;4411397;32;20003;-54
2021/03/02 11:22:51;;;;;;;;;;;;;;;17.69;37.56;101510.72;4414437;32;19990;-53
2021/03/02 11:25:18;;;;;;;;;;;;;;;17.69;37.59;101504.59;4413740;32;19950;-51
2021/03/02 11:27:44;;;;;;;;;;;;;;;17.70;37.62;101503.75;4411235;32;19965;-53
2021/03/02 11:30:10;;;;;;;;;;;;;;;17.72;37.50;101495.88;4413034;32;19972;-54
2021/03/02 11:32:36;;;;;;;;;;;;;;;17.75;37.58;101496.91;4412751;32;19966;-53
2021/03/02 11:35:02;;;;;;;;;;;;;;;17.74;37.63;101494.25;4412981;32;20045;-55
2021/03/02 11:37:28;;;;;;;;;;;;;;;17.76;37.58;101485.53;4420710;32;19985;-53
2021/03/02 11:39:54;;;;;;;;;;;;;;;17.73;37.59;101481.91;4420221;32;19972;-54
2021/03/02 11:42:20;;;;;;;;;;;;;;;17.73;37.72;101481.91;4418765;32;19968;-50
2021/03/02 11:44:46;;;;;;;;;;;;;;;17.76;37.63;101475.00;4418377;32;20007;-54
2021/03/02 11:47:11;;;;;;;;;;;;;;;17.77;37.68;101478.56;4414714;32;19954;-53
2021/03/02 11:49:37;;;;;;;;;;;;;;;17.74;37.82;101470.53;4413701;32;19962;-51
2021/03/02 11:52:03;;;;;;;;;;;;;;;17.72;37.83;101469.53;4417036;32;19959;-51
2021/03/02 11:54:29;;;;;;;;;;;;;;;17.78;37.73;101472.44;4418186;32;20060;-55
2021/03/02 11:56:55;;;;;;;;;;;;;;;17.76;37.74;101467.09;4417862;32;19977;-53
2021/03/02 11:59:21;;;;;;;;;;;;;;;17.86;37.60;101460.47;4413135;32;20016;-53
2021/03/02 12:01:47;;;;;;;;;;;;;;;17.87;37.62;101467.56;4423348;32;19958;-54
2021/03/02 12:04:13;;;;;;;;;;;;;;;17.83;37.63;101455.97;4422227;32;19968;-53
2021/03/02 12:06:39;;;;;;;;;;;;;;;17.86;37.70;101460.47;4416012;32;19995;-54
2021/03/02 12:09:04;;;;;;;;;;;;;;;17.92;37.60;101455.44;4414184;32;20913;-54
2021/03/02 12:11:30;;;;;;;;;;;;;;;17.96;37.52;101449.47;4424841;32;19998;-51
2021/03/02 12:13:56;;;;;;;;;;;;;;;17.95;37.58;101449.41;4419292;32;19974;-51
2021/03/02 12:16:22;;;;;;;;;;;;;;;17.98;37.62;101444.25;4408431;32;19958;-53
2021/03/02 12:18:48;;;;;;;;;;;;;;;18.00;37.58;101439.94;4408046;32;19994;-55
2021/03/02 12:21:14;;;;;;;;;;;;;;;18.02;37.59;101445.28;4408166;32;19953;-51
2021/03/02 12:23:40;;;;;;;;;;;;;;;17.99;37.64;101440.75;4413056;32;20350;-49
2021/03/02 12:26:06;;;;;;;;;;;;;;;17.95;37.74;101438.84;4414636;32;19962;-53
2021/03/02 12:28:32;;;;;;;;;;;;;;;17.98;37.75;101434.63;4410527;32;21421;-50